sensor_id;sensor_type;location;lat;lon;timestamp;P1;durP1;ratioP1;P2;durP2;ratioP2
15096;SDS011;7649;52.084;7.478;2023-04-25T00:00:39;9.63;;;4.80;;
15096;SDS011;7649;52.084;7.478;2023-04-25T00:03:08;8.40;;;5.20;;
15096;SDS011;7649;52.084;7.478;2023-04-25T00:05:36;12.83;;;5.30;;
15096;SDS011;7649;52.084;7.478;2023-04-25T00:08:05;9.20;;;4.67;;
15096;SDS011;7649;52.084;7.478;2023-04-25T00:10:34;10.93;;;4.80;;
15096;SDS011;7649;52.084;7.478;2023-04-25T00:13:03;12.60;;;5.23;;
15096;SDS011;7649;52.084;7.478;2023-04-25T00:15:31;11.73;;;4.97;;
15096;SDS011;7649;52.084;7.478;2023-04-25T00:17:59;8.80;;;5.50;;
15096;SDS011;7649;52.084;7.478;2023-04-25T00:20:27;10.70;;;5.07;;
15096;SDS011;7649;52.084;7.478;2023-04-25T00:22:56;8.03;;;4.83;;
15096;SDS011;7649;52.084;7.478;2023-04-25T00:25:24;9.03;;;4.77;;
15096;SDS011;7649;52.084;7.478;2023-04-25T00:27:54;9.93;;;5.20;;
15096;SDS011;7649;52.084;7.478;2023-04-25T00:30:22;10.07;;;4.70;;
15096;SDS011;7649;52.084;7.478;2023-04-25T00:32:50;8.80;;;4.13;;
15096;SDS011;7649;52.084;7.478;2023-04-25T00:35:19;11.40;;;4.70;;
15096;SDS011;7649;52.084;7.478;2023-04-25T00:37:47;7.23;;;4.60;;
15096;SDS011;7649;52.084;7.478;2023-04-25T00:40:15;7.70;;;4.23;;
15096;SDS011;7649;52.084;7.478;2023-04-25T00:42:44;7.67;;;4.30;;
15096;SDS011;7649;52.084;7.478;2023-04-25T00:45:14;9.60;;;4.30;;
15096;SDS011;7649;52.084;7.478;2023-04-25T00:47:43;9.80;;;4.40;;
15096;SDS011;7649;52.084;7.478;2023-04-25T00:50:11;8.43;;;4.33;;
15096;SDS011;7649;52.084;7.478;2023-04-25T00:52:40;9.30;;;4.27;;
15096;SDS011;7649;52.084;7.478;2023-04-25T00:55:09;8.63;;;4.30;;
15096;SDS011;7649;52.084;7.478;2023-04-25T00:57:38;7.90;;;4.30;;
15096;SDS011;7649;52.084;7.478;2023-04-25T01:00:07;7.50;;;4.17;;
15096;SDS011;7649;52.084;7.478;2023-04-25T01:02:38;10.60;;;4.30;;
15096;SDS011;7649;52.084;7.478;2023-04-25T01:05:10;9.27;;;4.40;;
15096;SDS011;7649;52.084;7.478;2023-04-25T01:07:39;10.63;;;4.00;;
15096;SDS011;7649;52.084;7.478;2023-04-25T01:10:08;11.63;;;4.20;;
15096;SDS011;7649;52.084;7.478;2023-04-25T01:12:36;11.97;;;4.23;;
15096;SDS011;7649;52.084;7.478;2023-04-25T01:15:05;10.73;;;4.50;;
15096;SDS011;7649;52.084;7.478;2023-04-25T01:17:33;14.20;;;4.50;;
15096;SDS011;7649;52.084;7.478;2023-04-25T01:20:04;11.40;;;4.30;;
15096;SDS011;7649;52.084;7.478;2023-04-25T01:22:35;14.60;;;4.30;;
15096;SDS011;7649;52.084;7.478;2023-04-25T01:25:03;12.07;;;4.20;;
15096;SDS011;7649;52.084;7.478;2023-04-25T01:27:31;14.27;;;4.60;;
15096;SDS011;7649;52.084;7.478;2023-04-25T01:30:00;14.30;;;4.57;;
15096;SDS011;7649;52.084;7.478;2023-04-25T01:32:29;12.67;;;4.40;;
15096;SDS011;7649;52.084;7.478;2023-04-25T01:35:04;13.60;;;4.00;;
15096;SDS011;7649;52.084;7.478;2023-04-25T01:37:36;14.53;;;4.57;;
15096;SDS011;7649;52.084;7.478;2023-04-25T01:40:05;16.33;;;4.27;;
15096;SDS011;7649;52.084;7.478;2023-04-25T01:42:35;13.13;;;4.70;;
15096;SDS011;7649;52.084;7.478;2023-04-25T01:45:03;12.90;;;4.60;;
15096;SDS011;7649;52.084;7.478;2023-04-25T01:47:32;14.67;;;5.30;;
15096;SDS011;7649;52.084;7.478;2023-04-25T01:50:02;14.60;;;4.50;;
15096;SDS011;7649;52.084;7.478;2023-04-25T01:52:30;12.00;;;4.33;;
15096;SDS011;7649;52.084;7.478;2023-04-25T01:55:00;11.60;;;3.93;;
15096;SDS011;7649;52.084;7.478;2023-04-25T01:57:28;17.40;;;4.73;;
15096;SDS011;7649;52.084;7.478;2023-04-25T01:59:59;18.37;;;4.40;;
15096;SDS011;7649;52.084;7.478;2023-04-25T02:02:28;15.67;;;4.87;;
15096;SDS011;7649;52.084;7.478;2023-04-25T02:04:57;17.67;;;4.60;;
15096;SDS011;7649;52.084;7.478;2023-04-25T02:07:26;17.73;;;5.13;;
15096;SDS011;7649;52.084;7.478;2023-04-25T02:09:54;13.33;;;4.43;;
15096;SDS011;7649;52.084;7.478;2023-04-25T02:12:23;16.90;;;4.43;;
15096;SDS011;7649;52.084;7.478;2023-04-25T02:14:52;16.93;;;4.53;;
15096;SDS011;7649;52.084;7.478;2023-04-25T02:17:20;13.67;;;4.53;;
15096;SDS011;7649;52.084;7.478;2023-04-25T02:19:49;14.47;;;4.90;;
15096;SDS011;7649;52.084;7.478;2023-04-25T02:22:17;17.33;;;4.97;;
15096;SDS011;7649;52.084;7.478;2023-04-25T02:24:46;17.03;;;4.77;;
15096;SDS011;7649;52.084;7.478;2023-04-25T02:27:14;15.43;;;4.83;;
15096;SDS011;7649;52.084;7.478;2023-04-25T02:29:44;17.47;;;5.07;;
15096;SDS011;7649;52.084;7.478;2023-04-25T02:32:12;23.23;;;5.70;;
15096;SDS011;7649;52.084;7.478;2023-04-25T02:34:40;15.77;;;5.20;;
15096;SDS011;7649;52.084;7.478;2023-04-25T02:37:09;17.80;;;4.70;;
15096;SDS011;7649;52.084;7.478;2023-04-25T02:39:37;16.63;;;4.90;;
15096;SDS011;7649;52.084;7.478;2023-04-25T02:42:05;17.37;;;4.47;;
15096;SDS011;7649;52.084;7.478;2023-04-25T02:44:33;16.63;;;5.00;;
15096;SDS011;7649;52.084;7.478;2023-04-25T02:47:03;19.83;;;5.27;;
15096;SDS011;7649;52.084;7.478;2023-04-25T02:49:31;19.53;;;5.00;;
15096;SDS011;7649;52.084;7.478;2023-04-25T02:51:59;15.40;;;4.47;;
15096;SDS011;7649;52.084;7.478;2023-04-25T02:54:28;23.23;;;5.87;;
15096;SDS011;7649;52.084;7.478;2023-04-25T02:56:56;17.63;;;4.20;;
15096;SDS011;7649;52.084;7.478;2023-04-25T02:59:24;14.00;;;4.83;;
15096;SDS011;7649;52.084;7.478;2023-04-25T03:01:52;15.57;;;4.93;;
15096;SDS011;7649;52.084;7.478;2023-04-25T03:04:22;17.37;;;5.10;;
15096;SDS011;7649;52.084;7.478;2023-04-25T03:06:51;17.43;;;5.10;;
15096;SDS011;7649;52.084;7.478;2023-04-25T03:09:19;26.00;;;5.43;;
15096;SDS011;7649;52.084;7.478;2023-04-25T03:11:47;18.47;;;5.63;;
15096;SDS011;7649;52.084;7.478;2023-04-25T03:14:16;14.67;;;4.90;;
15096;SDS011;7649;52.084;7.478;2023-04-25T03:16:44;16.53;;;5.07;;
15096;SDS011;7649;52.084;7.478;2023-04-25T03:19:12;17.37;;;5.07;;
15096;SDS011;7649;52.084;7.478;2023-04-25T03:21:43;22.07;;;5.13;;
15096;SDS011;7649;52.084;7.478;2023-04-25T03:24:12;13.43;;;4.80;;
15096;SDS011;7649;52.084;7.478;2023-04-25T03:26:40;17.73;;;5.20;;
15096;SDS011;7649;52.084;7.478;2023-04-25T03:29:08;17.27;;;5.40;;
15096;SDS011;7649;52.084;7.478;2023-04-25T03:31:36;17.70;;;5.03;;
15096;SDS011;7649;52.084;7.478;2023-04-25T03:34:05;17.10;;;5.00;;
15096;SDS011;7649;52.084;7.478;2023-04-25T03:36:33;13.37;;;5.40;;
15096;SDS011;7649;52.084;7.478;2023-04-25T03:39:03;22.83;;;5.13;;
15096;SDS011;7649;52.084;7.478;2023-04-25T03:41:32;14.70;;;4.40;;
15096;SDS011;7649;52.084;7.478;2023-04-25T03:44:00;20.50;;;5.87;;
15096;SDS011;7649;52.084;7.478;2023-04-25T03:46:28;23.20;;;5.43;;
15096;SDS011;7649;52.084;7.478;2023-04-25T03:48:56;16.73;;;4.73;;
15096;SDS011;7649;52.084;7.478;2023-04-25T03:51:25;16.60;;;4.40;;
15096;SDS011;7649;52.084;7.478;2023-04-25T03:53:53;13.40;;;4.57;;
15096;SDS011;7649;52.084;7.478;2023-04-25T03:56:23;15.83;;;4.87;;
15096;SDS011;7649;52.084;7.478;2023-04-25T03:58:51;15.47;;;4.47;;
15096;SDS011;7649;52.084;7.478;2023-04-25T04:01:19;15.33;;;5.07;;
15096;SDS011;7649;52.084;7.478;2023-04-25T04:03:48;15.63;;;4.57;;
15096;SDS011;7649;52.084;7.478;2023-04-25T04:06:17;18.90;;;5.10;;
15096;SDS011;7649;52.084;7.478;2023-04-25T04:08:46;21.67;;;5.10;;
15096;SDS011;7649;52.084;7.478;2023-04-25T04:11:15;14.13;;;4.57;;
15096;SDS011;7649;52.084;7.478;2023-04-25T04:13:44;20.73;;;5.53;;
15096;SDS011;7649;52.084;7.478;2023-04-25T04:16:13;17.27;;;5.33;;
15096;SDS011;7649;52.084;7.478;2023-04-25T04:18:41;24.80;;;5.17;;
15096;SDS011;7649;52.084;7.478;2023-04-25T04:21:09;16.10;;;4.73;;
15096;SDS011;7649;52.084;7.478;2023-04-25T04:23:37;15.57;;;4.60;;
15096;SDS011;7649;52.084;7.478;2023-04-25T04:26:06;19.60;;;5.43;;
15096;SDS011;7649;52.084;7.478;2023-04-25T04:28:34;25.50;;;6.37;;
15096;SDS011;7649;52.084;7.478;2023-04-25T04:31:05;22.63;;;5.23;;
15096;SDS011;7649;52.084;7.478;2023-04-25T04:33:33;18.03;;;5.43;;
15096;SDS011;7649;52.084;7.478;2023-04-25T04:36:03;17.43;;;4.70;;
15096;SDS011;7649;52.084;7.478;2023-04-25T04:38:33;25.07;;;5.47;;
15096;SDS011;7649;52.084;7.478;2023-04-25T04:41:03;18.80;;;5.43;;
15096;SDS011;7649;52.084;7.478;2023-04-25T04:43:31;15.83;;;5.10;;
15096;SDS011;7649;52.084;7.478;2023-04-25T04:46:00;14.90;;;4.83;;
15096;SDS011;7649;52.084;7.478;2023-04-25T04:48:31;16.27;;;4.90;;
15096;SDS011;7649;52.084;7.478;2023-04-25T04:51:00;15.80;;;4.60;;
15096;SDS011;7649;52.084;7.478;2023-04-25T04:53:28;16.07;;;5.23;;
15096;SDS011;7649;52.084;7.478;2023-04-25T04:55:56;14.67;;;4.57;;
15096;SDS011;7649;52.084;7.478;2023-04-25T04:58:25;19.10;;;5.10;;
15096;SDS011;7649;52.084;7.478;2023-04-25T05:00:55;18.10;;;4.53;;
15096;SDS011;7649;52.084;7.478;2023-04-25T05:03:23;20.10;;;4.50;;
15096;SDS011;7649;52.084;7.478;2023-04-25T05:05:53;16.67;;;4.40;;
15096;SDS011;7649;52.084;7.478;2023-04-25T05:08:21;17.97;;;4.83;;
15096;SDS011;7649;52.084;7.478;2023-04-25T05:10:49;18.57;;;6.83;;
15096;SDS011;7649;52.084;7.478;2023-04-25T05:13:18;14.47;;;4.30;;
15096;SDS011;7649;52.084;7.478;2023-04-25T05:15:46;18.13;;;5.20;;
15096;SDS011;7649;52.084;7.478;2023-04-25T05:18:14;14.23;;;4.23;;
15096;SDS011;7649;52.084;7.478;2023-04-25T05:20:42;16.37;;;4.60;;
15096;SDS011;7649;52.084;7.478;2023-04-25T05:23:12;14.17;;;4.23;;
15096;SDS011;7649;52.084;7.478;2023-04-25T05:25:41;16.40;;;4.13;;
15096;SDS011;7649;52.084;7.478;2023-04-25T05:28:10;16.77;;;4.37;;
15096;SDS011;7649;52.084;7.478;2023-04-25T05:30:39;16.27;;;4.20;;
15096;SDS011;7649;52.084;7.478;2023-04-25T05:33:07;15.20;;;4.50;;
15096;SDS011;7649;52.084;7.478;2023-04-25T05:35:36;11.10;;;4.57;;
15096;SDS011;7649;52.084;7.478;2023-04-25T05:38:04;12.37;;;3.77;;
15096;SDS011;7649;52.084;7.478;2023-04-25T05:40:33;12.77;;;3.73;;
15096;SDS011;7649;52.084;7.478;2023-04-25T05:43:02;12.27;;;4.20;;
15096;SDS011;7649;52.084;7.478;2023-04-25T05:45:30;13.87;;;3.93;;
15096;SDS011;7649;52.084;7.478;2023-04-25T05:47:58;13.23;;;4.67;;
15096;SDS011;7649;52.084;7.478;2023-04-25T05:50:27;16.40;;;4.70;;
15096;SDS011;7649;52.084;7.478;2023-04-25T05:52:55;25.80;;;4.30;;
15096;SDS011;7649;52.084;7.478;2023-04-25T05:55:23;12.53;;;4.17;;
15096;SDS011;7649;52.084;7.478;2023-04-25T05:57:53;12.40;;;4.13;;
15096;SDS011;7649;52.084;7.478;2023-04-25T06:00:21;11.07;;;3.53;;
15096;SDS011;7649;52.084;7.478;2023-04-25T06:02:50;11.47;;;3.63;;
15096;SDS011;7649;52.084;7.478;2023-04-25T06:05:18;12.90;;;3.53;;
15096;SDS011;7649;52.084;7.478;2023-04-25T06:07:47;12.83;;;3.57;;
15096;SDS011;7649;52.084;7.478;2023-04-25T06:10:15;18.53;;;3.70;;
15096;SDS011;7649;52.084;7.478;2023-04-25T06:12:44;12.17;;;3.67;;
15096;SDS011;7649;52.084;7.478;2023-04-25T06:15:14;9.60;;;3.53;;
15096;SDS011;7649;52.084;7.478;2023-04-25T06:17:53;13.60;;;3.70;;
15096;SDS011;7649;52.084;7.478;2023-04-25T06:20:22;13.87;;;4.33;;
15096;SDS011;7649;52.084;7.478;2023-04-25T06:22:51;11.23;;;3.57;;
15096;SDS011;7649;52.084;7.478;2023-04-25T06:25:19;26.97;;;6.13;;
15096;SDS011;7649;52.084;7.478;2023-04-25T06:27:47;13.47;;;4.10;;
15096;SDS011;7649;52.084;7.478;2023-04-25T06:30:17;12.90;;;3.43;;
15096;SDS011;7649;52.084;7.478;2023-04-25T06:32:51;15.10;;;4.17;;
15096;SDS011;7649;52.084;7.478;2023-04-25T06:35:20;14.67;;;3.20;;
15096;SDS011;7649;52.084;7.478;2023-04-25T06:37:48;8.67;;;3.30;;
15096;SDS011;7649;52.084;7.478;2023-04-25T06:40:17;11.83;;;4.20;;
15096;SDS011;7649;52.084;7.478;2023-04-25T06:42:45;8.77;;;3.40;;
15096;SDS011;7649;52.084;7.478;2023-04-25T06:45:13;14.53;;;3.17;;
15096;SDS011;7649;52.084;7.478;2023-04-25T06:47:44;10.23;;;3.57;;
15096;SDS011;7649;52.084;7.478;2023-04-25T06:50:12;11.93;;;3.60;;
15096;SDS011;7649;52.084;7.478;2023-04-25T06:52:41;11.87;;;3.70;;
15096;SDS011;7649;52.084;7.478;2023-04-25T06:55:09;11.53;;;3.77;;
15096;SDS011;7649;52.084;7.478;2023-04-25T06:57:37;7.77;;;3.47;;
15096;SDS011;7649;52.084;7.478;2023-04-25T07:00:06;13.23;;;2.90;;
15096;SDS011;7649;52.084;7.478;2023-04-25T07:02:35;14.10;;;3.20;;
15096;SDS011;7649;52.084;7.478;2023-04-25T07:05:06;12.43;;;3.40;;
15096;SDS011;7649;52.084;7.478;2023-04-25T07:07:34;15.37;;;4.40;;
15096;SDS011;7649;52.084;7.478;2023-04-25T07:10:02;11.80;;;3.47;;
15096;SDS011;7649;52.084;7.478;2023-04-25T07:12:31;13.97;;;3.70;;
15096;SDS011;7649;52.084;7.478;2023-04-25T07:14:59;8.33;;;3.10;;
15096;SDS011;7649;52.084;7.478;2023-04-25T07:17:32;9.10;;;3.03;;
15096;SDS011;7649;52.084;7.478;2023-04-25T07:20:01;14.17;;;3.53;;
15096;SDS011;7649;52.084;7.478;2023-04-25T07:22:31;13.37;;;3.43;;
15096;SDS011;7649;52.084;7.478;2023-04-25T07:24:59;9.17;;;2.93;;
15096;SDS011;7649;52.084;7.478;2023-04-25T07:27:28;8.00;;;2.80;;
15096;SDS011;7649;52.084;7.478;2023-04-25T07:29:57;11.83;;;2.87;;
15096;SDS011;7649;52.084;7.478;2023-04-25T07:32:25;9.40;;;3.13;;
15096;SDS011;7649;52.084;7.478;2023-04-25T07:34:54;12.10;;;3.50;;
15096;SDS011;7649;52.084;7.478;2023-04-25T07:37:22;13.93;;;3.63;;
15096;SDS011;7649;52.084;7.478;2023-04-25T07:39:52;9.63;;;3.10;;
15096;SDS011;7649;52.084;7.478;2023-04-25T07:42:20;9.87;;;2.90;;
15096;SDS011;7649;52.084;7.478;2023-04-25T07:44:49;7.83;;;2.87;;
15096;SDS011;7649;52.084;7.478;2023-04-25T07:47:17;9.33;;;3.10;;
15096;SDS011;7649;52.084;7.478;2023-04-25T07:49:46;6.90;;;2.70;;
15096;SDS011;7649;52.084;7.478;2023-04-25T07:52:15;12.07;;;3.30;;
15096;SDS011;7649;52.084;7.478;2023-04-25T07:54:43;15.47;;;3.77;;
15096;SDS011;7649;52.084;7.478;2023-04-25T07:57:13;8.53;;;3.30;;
15096;SDS011;7649;52.084;7.478;2023-04-25T07:59:41;10.70;;;3.03;;
15096;SDS011;7649;52.084;7.478;2023-04-25T08:02:09;7.93;;;2.87;;
15096;SDS011;7649;52.084;7.478;2023-04-25T08:04:38;9.60;;;2.97;;
15096;SDS011;7649;52.084;7.478;2023-04-25T08:07:07;9.73;;;3.03;;
15096;SDS011;7649;52.084;7.478;2023-04-25T08:09:35;13.00;;;3.37;;
15096;SDS011;7649;52.084;7.478;2023-04-25T08:12:04;12.67;;;2.80;;
15096;SDS011;7649;52.084;7.478;2023-04-25T08:14:34;9.03;;;2.50;;
15096;SDS011;7649;52.084;7.478;2023-04-25T08:17:03;7.13;;;2.50;;
15096;SDS011;7649;52.084;7.478;2023-04-25T08:19:32;8.23;;;2.60;;
15096;SDS011;7649;52.084;7.478;2023-04-25T08:22:00;7.97;;;2.70;;
15096;SDS011;7649;52.084;7.478;2023-04-25T08:24:29;8.07;;;2.53;;
15096;SDS011;7649;52.084;7.478;2023-04-25T08:26:58;7.63;;;2.80;;
15096;SDS011;7649;52.084;7.478;2023-04-25T08:29:28;6.97;;;2.40;;
15096;SDS011;7649;52.084;7.478;2023-04-25T08:31:58;9.50;;;2.87;;
15096;SDS011;7649;52.084;7.478;2023-04-25T08:34:27;7.93;;;2.77;;
15096;SDS011;7649;52.084;7.478;2023-04-25T08:36:56;6.80;;;2.60;;
15096;SDS011;7649;52.084;7.478;2023-04-25T08:39:24;5.50;;;2.27;;
15096;SDS011;7649;52.084;7.478;2023-04-25T08:41:53;4.83;;;2.10;;
15096;SDS011;7649;52.084;7.478;2023-04-25T08:44:21;9.60;;;2.87;;
15096;SDS011;7649;52.084;7.478;2023-04-25T08:46:50;8.57;;;2.83;;
15096;SDS011;7649;52.084;7.478;2023-04-25T08:49:22;9.43;;;2.63;;
15096;SDS011;7649;52.084;7.478;2023-04-25T08:51:51;9.33;;;2.77;;
15096;SDS011;7649;52.084;7.478;2023-04-25T08:54:20;10.30;;;2.70;;
15096;SDS011;7649;52.084;7.478;2023-04-25T08:57:02;9.20;;;2.50;;
15096;SDS011;7649;52.084;7.478;2023-04-25T08:59:31;10.90;;;2.60;;
15096;SDS011;7649;52.084;7.478;2023-04-25T09:02:02;7.27;;;2.37;;
15096;SDS011;7649;52.084;7.478;2023-04-25T09:04:33;6.60;;;2.63;;
15096;SDS011;7649;52.084;7.478;2023-04-25T09:07:04;6.63;;;2.03;;
15096;SDS011;7649;52.084;7.478;2023-04-25T09:09:33;6.97;;;2.47;;
15096;SDS011;7649;52.084;7.478;2023-04-25T09:12:02;11.33;;;4.30;;
15096;SDS011;7649;52.084;7.478;2023-04-25T09:14:30;7.90;;;2.30;;
15096;SDS011;7649;52.084;7.478;2023-04-25T09:16:59;10.17;;;2.37;;
15096;SDS011;7649;52.084;7.478;2023-04-25T09:19:29;7.47;;;2.17;;
15096;SDS011;7649;52.084;7.478;2023-04-25T09:22:07;7.07;;;2.20;;
15096;SDS011;7649;52.084;7.478;2023-04-25T09:24:37;5.30;;;2.00;;
15096;SDS011;7649;52.084;7.478;2023-04-25T09:27:05;4.07;;;2.00;;
15096;SDS011;7649;52.084;7.478;2023-04-25T09:29:35;4.73;;;2.20;;
15096;SDS011;7649;52.084;7.478;2023-04-25T09:32:11;4.73;;;2.17;;
15096;SDS011;7649;52.084;7.478;2023-04-25T09:34:40;6.63;;;2.10;;
15096;SDS011;7649;52.084;7.478;2023-04-25T09:37:11;6.17;;;2.57;;
15096;SDS011;7649;52.084;7.478;2023-04-25T09:39:41;5.63;;;2.20;;
15096;SDS011;7649;52.084;7.478;2023-04-25T09:42:13;4.07;;;1.70;;
15096;SDS011;7649;52.084;7.478;2023-04-25T09:44:44;5.97;;;2.27;;
15096;SDS011;7649;52.084;7.478;2023-04-25T09:47:13;6.80;;;2.40;;
15096;SDS011;7649;52.084;7.478;2023-04-25T09:49:42;5.50;;;1.73;;
15096;SDS011;7649;52.084;7.478;2023-04-25T09:52:15;3.93;;;1.70;;
15096;SDS011;7649;52.084;7.478;2023-04-25T09:54:43;3.50;;;1.90;;
15096;SDS011;7649;52.084;7.478;2023-04-25T09:57:12;5.77;;;1.93;;
15096;SDS011;7649;52.084;7.478;2023-04-25T09:59:45;6.53;;;2.07;;
15096;SDS011;7649;52.084;7.478;2023-04-25T10:02:15;3.83;;;1.67;;
15096;SDS011;7649;52.084;7.478;2023-04-25T10:04:47;4.80;;;2.00;;
15096;SDS011;7649;52.084;7.478;2023-04-25T10:07:19;7.13;;;1.70;;
15096;SDS011;7649;52.084;7.478;2023-04-25T10:09:49;6.23;;;2.17;;
15096;SDS011;7649;52.084;7.478;2023-04-25T10:12:18;3.20;;;1.90;;
15096;SDS011;7649;52.084;7.478;2023-04-25T10:14:46;5.73;;;1.87;;
15096;SDS011;7649;52.084;7.478;2023-04-25T10:17:15;3.70;;;1.93;;
15096;SDS011;7649;52.084;7.478;2023-04-25T10:19:45;4.97;;;2.00;;
15096;SDS011;7649;52.084;7.478;2023-04-25T10:22:14;5.67;;;1.90;;
15096;SDS011;7649;52.084;7.478;2023-04-25T10:24:46;8.27;;;2.00;;
15096;SDS011;7649;52.084;7.478;2023-04-25T10:27:16;5.80;;;2.00;;
15096;SDS011;7649;52.084;7.478;2023-04-25T10:29:45;7.33;;;2.10;;
15096;SDS011;7649;52.084;7.478;2023-04-25T10:32:30;4.30;;;1.93;;
15096;SDS011;7649;52.084;7.478;2023-04-25T10:35:09;8.73;;;2.40;;
15096;SDS011;7649;52.084;7.478;2023-04-25T10:37:38;6.70;;;2.10;;
15096;SDS011;7649;52.084;7.478;2023-04-25T10:40:10;7.03;;;2.10;;
15096;SDS011;7649;52.084;7.478;2023-04-25T10:42:39;7.23;;;1.90;;
15096;SDS011;7649;52.084;7.478;2023-04-25T10:45:09;5.33;;;1.30;;
15096;SDS011;7649;52.084;7.478;2023-04-25T10:47:43;4.40;;;1.57;;
15096;SDS011;7649;52.084;7.478;2023-04-25T10:50:14;5.23;;;2.17;;
15096;SDS011;7649;52.084;7.478;2023-04-25T10:52:43;4.23;;;1.67;;
15096;SDS011;7649;52.084;7.478;2023-04-25T10:55:13;7.13;;;2.27;;
15096;SDS011;7649;52.084;7.478;2023-04-25T10:57:42;4.70;;;1.90;;
15096;SDS011;7649;52.084;7.478;2023-04-25T11:00:13;5.77;;;2.03;;
15096;SDS011;7649;52.084;7.478;2023-04-25T11:02:42;5.13;;;2.50;;
15096;SDS011;7649;52.084;7.478;2023-04-25T11:05:16;7.73;;;2.27;;
15096;SDS011;7649;52.084;7.478;2023-04-25T11:07:52;7.83;;;2.37;;
15096;SDS011;7649;52.084;7.478;2023-04-25T11:10:34;8.70;;;2.30;;
15096;SDS011;7649;52.084;7.478;2023-04-25T11:13:03;4.50;;;1.83;;
15096;SDS011;7649;52.084;7.478;2023-04-25T11:15:31;4.60;;;2.10;;
15096;SDS011;7649;52.084;7.478;2023-04-25T11:17:59;2.43;;;1.43;;
15096;SDS011;7649;52.084;7.478;2023-04-25T11:20:28;5.20;;;1.57;;
15096;SDS011;7649;52.084;7.478;2023-04-25T11:22:57;2.77;;;1.40;;
15096;SDS011;7649;52.084;7.478;2023-04-25T11:25:26;3.13;;;1.47;;
15096;SDS011;7649;52.084;7.478;2023-04-25T11:27:56;5.97;;;1.87;;
15096;SDS011;7649;52.084;7.478;2023-04-25T11:30:25;4.30;;;1.70;;
15096;SDS011;7649;52.084;7.478;2023-04-25T11:32:53;5.60;;;2.40;;
15096;SDS011;7649;52.084;7.478;2023-04-25T11:35:21;3.77;;;1.60;;
15096;SDS011;7649;52.084;7.478;2023-04-25T11:37:51;2.87;;;1.47;;
15096;SDS011;7649;52.084;7.478;2023-04-25T11:40:20;4.47;;;1.50;;
15096;SDS011;7649;52.084;7.478;2023-04-25T11:42:48;2.83;;;1.50;;
15096;SDS011;7649;52.084;7.478;2023-04-25T11:45:21;3.53;;;1.33;;
15096;SDS011;7649;52.084;7.478;2023-04-25T11:47:50;3.10;;;1.40;;
15096;SDS011;7649;52.084;7.478;2023-04-25T11:50:19;3.00;;;1.47;;
15096;SDS011;7649;52.084;7.478;2023-04-25T11:52:48;2.90;;;1.50;;
15096;SDS011;7649;52.084;7.478;2023-04-25T11:55:17;3.50;;;1.40;;
15096;SDS011;7649;52.084;7.478;2023-04-25T11:57:46;4.60;;;2.00;;
15096;SDS011;7649;52.084;7.478;2023-04-25T12:00:16;2.87;;;1.50;;
15096;SDS011;7649;52.084;7.478;2023-04-25T12:02:48;2.67;;;1.50;;
15096;SDS011;7649;52.084;7.478;2023-04-25T12:05:19;3.87;;;1.50;;
15096;SDS011;7649;52.084;7.478;2023-04-25T12:07:50;3.50;;;1.50;;
15096;SDS011;7649;52.084;7.478;2023-04-25T12:10:18;6.20;;;1.60;;
15096;SDS011;7649;52.084;7.478;2023-04-25T12:12:47;3.80;;;1.73;;
15096;SDS011;7649;52.084;7.478;2023-04-25T12:15:17;4.10;;;1.20;;
15096;SDS011;7649;52.084;7.478;2023-04-25T12:17:48;3.90;;;1.53;;
15096;SDS011;7649;52.084;7.478;2023-04-25T12:20:17;6.23;;;1.87;;
15096;SDS011;7649;52.084;7.478;2023-04-25T12:22:46;2.97;;;1.67;;
15096;SDS011;7649;52.084;7.478;2023-04-25T12:28:08;5.57;;;2.50;;
15096;SDS011;7649;52.084;7.478;2023-04-25T12:30:51;7.43;;;2.10;;
15096;SDS011;7649;52.084;7.478;2023-04-25T12:33:21;4.63;;;2.30;;
15096;SDS011;7649;52.084;7.478;2023-04-25T12:35:49;2.73;;;1.60;;
15096;SDS011;7649;52.084;7.478;2023-04-25T12:38:21;2.63;;;1.50;;
15096;SDS011;7649;52.084;7.478;2023-04-25T12:40:49;4.00;;;1.80;;
15096;SDS011;7649;52.084;7.478;2023-04-25T12:43:18;2.67;;;1.30;;
15096;SDS011;7649;52.084;7.478;2023-04-25T12:45:47;4.83;;;1.50;;
15096;SDS011;7649;52.084;7.478;2023-04-25T12:48:16;3.60;;;1.60;;
15096;SDS011;7649;52.084;7.478;2023-04-25T12:50:45;3.53;;;1.90;;
15096;SDS011;7649;52.084;7.478;2023-04-25T12:53:15;5.57;;;1.80;;
15096;SDS011;7649;52.084;7.478;2023-04-25T12:55:43;3.57;;;2.10;;
15096;SDS011;7649;52.084;7.478;2023-04-25T12:58:13;4.47;;;1.87;;
15096;SDS011;7649;52.084;7.478;2023-04-25T13:00:41;5.37;;;2.73;;
15096;SDS011;7649;52.084;7.478;2023-04-25T13:03:09;4.20;;;1.70;;
15096;SDS011;7649;52.084;7.478;2023-04-25T13:05:39;4.40;;;1.90;;
15096;SDS011;7649;52.084;7.478;2023-04-25T13:08:09;8.27;;;2.20;;
15096;SDS011;7649;52.084;7.478;2023-04-25T13:10:37;7.00;;;2.50;;
15096;SDS011;7649;52.084;7.478;2023-04-25T13:13:06;4.63;;;2.00;;
15096;SDS011;7649;52.084;7.478;2023-04-25T13:15:34;4.73;;;1.70;;
15096;SDS011;7649;52.084;7.478;2023-04-25T13:18:02;3.17;;;2.00;;
15096;SDS011;7649;52.084;7.478;2023-04-25T13:20:31;5.77;;;1.77;;
15096;SDS011;7649;52.084;7.478;2023-04-25T13:23:00;4.30;;;1.83;;
15096;SDS011;7649;52.084;7.478;2023-04-25T13:25:29;6.80;;;2.30;;
15096;SDS011;7649;52.084;7.478;2023-04-25T13:27:58;5.87;;;2.20;;
15096;SDS011;7649;52.084;7.478;2023-04-25T13:30:26;8.03;;;2.17;;
15096;SDS011;7649;52.084;7.478;2023-04-25T13:32:54;5.23;;;2.33;;
15096;SDS011;7649;52.084;7.478;2023-04-25T13:35:23;5.83;;;2.27;;
15096;SDS011;7649;52.084;7.478;2023-04-25T13:37:52;5.73;;;2.00;;
15096;SDS011;7649;52.084;7.478;2023-04-25T13:40:20;6.00;;;2.00;;
15096;SDS011;7649;52.084;7.478;2023-04-25T13:42:52;5.53;;;1.90;;
15096;SDS011;7649;52.084;7.478;2023-04-25T13:45:20;6.27;;;2.20;;
15096;SDS011;7649;52.084;7.478;2023-04-25T13:47:48;4.90;;;1.97;;
15096;SDS011;7649;52.084;7.478;2023-04-25T13:50:17;18.07;;;2.40;;
15096;SDS011;7649;52.084;7.478;2023-04-25T13:52:46;6.13;;;1.70;;
15096;SDS011;7649;52.084;7.478;2023-04-25T13:55:14;5.37;;;1.77;;
15096;SDS011;7649;52.084;7.478;2023-04-25T13:57:43;3.67;;;1.50;;
15096;SDS011;7649;52.084;7.478;2023-04-25T14:00:13;2.50;;;1.57;;
15096;SDS011;7649;52.084;7.478;2023-04-25T14:02:42;4.30;;;1.83;;
15096;SDS011;7649;52.084;7.478;2023-04-25T14:05:12;3.87;;;1.70;;
15096;SDS011;7649;52.084;7.478;2023-04-25T14:07:41;4.23;;;1.67;;
15096;SDS011;7649;52.084;7.478;2023-04-25T14:10:09;6.50;;;1.93;;
15096;SDS011;7649;52.084;7.478;2023-04-25T14:12:37;3.67;;;1.87;;
15096;SDS011;7649;52.084;7.478;2023-04-25T14:15:06;4.03;;;1.90;;
15096;SDS011;7649;52.084;7.478;2023-04-25T14:17:36;4.43;;;1.83;;
15096;SDS011;7649;52.084;7.478;2023-04-25T14:20:05;5.37;;;1.77;;
15096;SDS011;7649;52.084;7.478;2023-04-25T14:22:34;4.23;;;1.60;;
15096;SDS011;7649;52.084;7.478;2023-04-25T14:25:03;10.73;;;2.13;;
15096;SDS011;7649;52.084;7.478;2023-04-25T14:27:31;3.67;;;1.90;;
15096;SDS011;7649;52.084;7.478;2023-04-25T14:30:00;3.80;;;1.83;;
15096;SDS011;7649;52.084;7.478;2023-04-25T14:32:28;3.10;;;1.60;;
15096;SDS011;7649;52.084;7.478;2023-04-25T14:34:59;3.37;;;1.60;;
15096;SDS011;7649;52.084;7.478;2023-04-25T14:37:27;2.47;;;1.10;;
15096;SDS011;7649;52.084;7.478;2023-04-25T14:39:56;3.77;;;1.63;;
15096;SDS011;7649;52.084;7.478;2023-04-25T14:42:24;6.53;;;2.40;;
15096;SDS011;7649;52.084;7.478;2023-04-25T14:44:52;4.30;;;1.70;;
15096;SDS011;7649;52.084;7.478;2023-04-25T14:47:21;2.83;;;1.70;;
15096;SDS011;7649;52.084;7.478;2023-04-25T14:49:49;4.10;;;1.60;;
15096;SDS011;7649;52.084;7.478;2023-04-25T14:52:21;2.67;;;1.57;;
15096;SDS011;7649;52.084;7.478;2023-04-25T14:54:50;4.63;;;2.43;;
15096;SDS011;7649;52.084;7.478;2023-04-25T14:57:18;2.87;;;2.10;;
15096;SDS011;7649;52.084;7.478;2023-04-25T14:59:46;2.93;;;1.60;;
15096;SDS011;7649;52.084;7.478;2023-04-25T15:02:15;7.07;;;2.20;;
15096;SDS011;7649;52.084;7.478;2023-04-25T15:04:43;4.30;;;1.80;;
15096;SDS011;7649;52.084;7.478;2023-04-25T15:07:12;2.30;;;1.50;;
15096;SDS011;7649;52.084;7.478;2023-04-25T15:09:44;2.67;;;1.60;;